sensor_id;sensor_type;location;lat;lon;timestamp;P1;durP1;ratioP1;P2;durP2;ratioP2
62798;SDS011;48842;51.046;13.796;2024-03-02T00:02:06;54.83;;;34.87;;
62798;SDS011;48842;51.046;13.796;2024-03-02T00:04:32;46.87;;;33.20;;
62798;SDS011;48842;51.046;13.796;2024-03-02T00:06:57;61.30;;;32.57;;
62798;SDS011;48842;51.046;13.796;2024-03-02T00:09:22;52.47;;;33.90;;
62798;SDS011;48842;51.046;13.796;2024-03-02T00:11:47;49.43;;;34.90;;
62798;SDS011;48842;51.046;13.796;2024-03-02T00:14:13;49.70;;;32.87;;
62798;SDS011;48842;51.046;13.796;2024-03-02T00:16:38;46.17;;;33.20;;
62798;SDS011;48842;51.046;13.796;2024-03-02T00:19:03;46.47;;;32.43;;
62798;SDS011;48842;51.046;13.796;2024-03-02T00:21:30;51.17;;;35.67;;
62798;SDS011;48842;51.046;13.796;2024-03-02T00:23:58;60.87;;;34.30;;
62798;SDS011;48842;51.046;13.796;2024-03-02T00:26:24;55.30;;;35.77;;
62798;SDS011;48842;51.046;13.796;2024-03-02T00:28:50;50.13;;;33.40;;
62798;SDS011;48842;51.046;13.796;2024-03-02T00:31:20;56.57;;;34.80;;
62798;SDS011;48842;51.046;13.796;2024-03-02T00:33:46;51.77;;;34.53;;
62798;SDS011;48842;51.046;13.796;2024-03-02T00:36:12;53.63;;;34.67;;
62798;SDS011;48842;51.046;13.796;2024-03-02T00:38:46;60.67;;;36.33;;
62798;SDS011;48842;51.046;13.796;2024-03-02T00:41:15;46.10;;;34.37;;
62798;SDS011;48842;51.046;13.796;2024-03-02T00:44:02;47.03;;;33.13;;
62798;SDS011;48842;51.046;13.796;2024-03-02T00:46:34;49.80;;;34.30;;
62798;SDS011;48842;51.046;13.796;2024-03-02T00:49:02;50.63;;;33.00;;
62798;SDS011;48842;51.046;13.796;2024-03-02T00:51:29;46.20;;;33.50;;
62798;SDS011;48842;51.046;13.796;2024-03-02T00:53:58;51.83;;;35.77;;
62798;SDS011;48842;51.046;13.796;2024-03-02T00:56:24;47.97;;;34.80;;
62798;SDS011;48842;51.046;13.796;2024-03-02T00:58:50;54.43;;;34.67;;
62798;SDS011;48842;51.046;13.796;2024-03-02T01:01:16;51.73;;;33.57;;
62798;SDS011;48842;51.046;13.796;2024-03-02T01:03:42;49.57;;;32.63;;
62798;SDS011;48842;51.046;13.796;2024-03-02T01:06:07;46.47;;;33.17;;
62798;SDS011;48842;51.046;13.796;2024-03-02T01:08:36;53.40;;;32.00;;
62798;SDS011;48842;51.046;13.796;2024-03-02T01:11:02;52.07;;;35.60;;
62798;SDS011;48842;51.046;13.796;2024-03-02T01:13:28;44.63;;;31.73;;
62798;SDS011;48842;51.046;13.796;2024-03-02T01:15:53;50.17;;;34.87;;
62798;SDS011;48842;51.046;13.796;2024-03-02T01:18:19;47.20;;;33.73;;
62798;SDS011;48842;51.046;13.796;2024-03-02T01:20:44;47.30;;;34.53;;
62798;SDS011;48842;51.046;13.796;2024-03-02T01:23:10;50.37;;;33.97;;
62798;SDS011;48842;51.046;13.796;2024-03-02T01:25:35;46.00;;;33.87;;
62798;SDS011;48842;51.046;13.796;2024-03-02T01:28:00;52.20;;;34.43;;
62798;SDS011;48842;51.046;13.796;2024-03-02T01:30:26;48.73;;;33.50;;
62798;SDS011;48842;51.046;13.796;2024-03-02T01:32:51;54.63;;;36.50;;
62798;SDS011;48842;51.046;13.796;2024-03-02T01:35:16;48.97;;;32.67;;
62798;SDS011;48842;51.046;13.796;2024-03-02T01:37:41;45.93;;;32.90;;
62798;SDS011;48842;51.046;13.796;2024-03-02T01:40:07;45.60;;;33.27;;
62798;SDS011;48842;51.046;13.796;2024-03-02T01:42:37;49.07;;;33.40;;
62798;SDS011;48842;51.046;13.796;2024-03-02T01:45:06;51.30;;;36.73;;
62798;SDS011;48842;51.046;13.796;2024-03-02T01:47:32;50.60;;;33.97;;
62798;SDS011;48842;51.046;13.796;2024-03-02T01:49:58;49.43;;;34.43;;
62798;SDS011;48842;51.046;13.796;2024-03-02T01:52:23;53.67;;;35.37;;
62798;SDS011;48842;51.046;13.796;2024-03-02T01:54:49;49.60;;;36.10;;
62798;SDS011;48842;51.046;13.796;2024-03-02T01:57:14;50.67;;;33.37;;
62798;SDS011;48842;51.046;13.796;2024-03-02T01:59:39;50.20;;;35.13;;
62798;SDS011;48842;51.046;13.796;2024-03-02T02:02:04;51.40;;;34.07;;
62798;SDS011;48842;51.046;13.796;2024-03-02T02:04:30;47.80;;;34.30;;
62798;SDS011;48842;51.046;13.796;2024-03-02T02:06:55;62.90;;;36.80;;
62798;SDS011;48842;51.046;13.796;2024-03-02T02:09:21;57.50;;;36.10;;
62798;SDS011;48842;51.046;13.796;2024-03-02T02:11:46;60.43;;;35.73;;
62798;SDS011;48842;51.046;13.796;2024-03-02T02:14:12;52.23;;;36.07;;
62798;SDS011;48842;51.046;13.796;2024-03-02T02:16:37;56.33;;;37.13;;
62798;SDS011;48842;51.046;13.796;2024-03-02T02:19:02;59.00;;;38.67;;
62798;SDS011;48842;51.046;13.796;2024-03-02T02:21:28;60.00;;;39.27;;
62798;SDS011;48842;51.046;13.796;2024-03-02T02:23:53;58.23;;;35.90;;
62798;SDS011;48842;51.046;13.796;2024-03-02T02:26:19;54.97;;;36.20;;
62798;SDS011;48842;51.046;13.796;2024-03-02T02:28:44;60.27;;;37.80;;
62798;SDS011;48842;51.046;13.796;2024-03-02T02:31:12;58.10;;;37.40;;
62798;SDS011;48842;51.046;13.796;2024-03-02T02:33:41;62.83;;;37.57;;
62798;SDS011;48842;51.046;13.796;2024-03-02T02:36:08;65.23;;;38.93;;
62798;SDS011;48842;51.046;13.796;2024-03-02T02:38:35;62.23;;;38.23;;
62798;SDS011;48842;51.046;13.796;2024-03-02T02:41:04;60.83;;;37.27;;
62798;SDS011;48842;51.046;13.796;2024-03-02T02:43:29;66.50;;;38.73;;
62798;SDS011;48842;51.046;13.796;2024-03-02T02:45:54;63.73;;;39.10;;
62798;SDS011;48842;51.046;13.796;2024-03-02T02:48:20;62.33;;;38.80;;
62798;SDS011;48842;51.046;13.796;2024-03-02T02:50:45;65.23;;;39.57;;
62798;SDS011;48842;51.046;13.796;2024-03-02T02:53:11;64.77;;;38.50;;
62798;SDS011;48842;51.046;13.796;2024-03-02T02:55:36;63.57;;;38.60;;
62798;SDS011;48842;51.046;13.796;2024-03-02T02:58:05;68.67;;;39.40;;
62798;SDS011;48842;51.046;13.796;2024-03-02T03:00:31;67.77;;;40.33;;
62798;SDS011;48842;51.046;13.796;2024-03-02T03:02:56;65.03;;;39.27;;
62798;SDS011;48842;51.046;13.796;2024-03-02T03:05:22;65.13;;;36.93;;
62798;SDS011;48842;51.046;13.796;2024-03-02T03:07:47;71.03;;;41.03;;
62798;SDS011;48842;51.046;13.796;2024-03-02T03:10:14;71.83;;;40.37;;
62798;SDS011;48842;51.046;13.796;2024-03-02T03:12:40;68.73;;;41.57;;
62798;SDS011;48842;51.046;13.796;2024-03-02T03:15:07;65.53;;;38.40;;
62798;SDS011;48842;51.046;13.796;2024-03-02T03:17:33;74.90;;;41.50;;
62798;SDS011;48842;51.046;13.796;2024-03-02T03:19:59;73.67;;;41.83;;
62798;SDS011;48842;51.046;13.796;2024-03-02T03:22:25;67.50;;;39.17;;
62798;SDS011;48842;51.046;13.796;2024-03-02T03:24:51;76.60;;;41.07;;
62798;SDS011;48842;51.046;13.796;2024-03-02T03:27:16;74.20;;;39.27;;
62798;SDS011;48842;51.046;13.796;2024-03-02T03:29:41;76.67;;;40.60;;
62798;SDS011;48842;51.046;13.796;2024-03-02T03:32:08;68.27;;;38.93;;
62798;SDS011;48842;51.046;13.796;2024-03-02T03:34:34;72.60;;;40.17;;
62798;SDS011;48842;51.046;13.796;2024-03-02T03:36:59;76.87;;;40.60;;
62798;SDS011;48842;51.046;13.796;2024-03-02T03:39:24;73.20;;;40.10;;
62798;SDS011;48842;51.046;13.796;2024-03-02T03:41:50;80.03;;;40.13;;
62798;SDS011;48842;51.046;13.796;2024-03-02T03:44:15;78.00;;;41.40;;
62798;SDS011;48842;51.046;13.796;2024-03-02T03:46:40;77.13;;;40.43;;
62798;SDS011;48842;51.046;13.796;2024-03-02T03:49:06;84.37;;;42.70;;
62798;SDS011;48842;51.046;13.796;2024-03-02T03:51:31;78.40;;;40.37;;
62798;SDS011;48842;51.046;13.796;2024-03-02T03:53:56;83.40;;;42.07;;
62798;SDS011;48842;51.046;13.796;2024-03-02T03:56:21;79.07;;;40.90;;
62798;SDS011;48842;51.046;13.796;2024-03-02T03:58:46;77.23;;;39.03;;
62798;SDS011;48842;51.046;13.796;2024-03-02T04:01:12;77.30;;;42.23;;
62798;SDS011;48842;51.046;13.796;2024-03-02T04:03:37;82.23;;;43.43;;
62798;SDS011;48842;51.046;13.796;2024-03-02T04:06:03;76.77;;;39.93;;
62798;SDS011;48842;51.046;13.796;2024-03-02T04:08:28;82.50;;;42.43;;
62798;SDS011;48842;51.046;13.796;2024-03-02T04:10:54;77.33;;;41.77;;
62798;SDS011;48842;51.046;13.796;2024-03-02T04:13:19;72.17;;;38.93;;
62798;SDS011;48842;51.046;13.796;2024-03-02T04:15:44;82.77;;;41.33;;
62798;SDS011;48842;51.046;13.796;2024-03-02T04:18:09;84.17;;;42.57;;
62798;SDS011;48842;51.046;13.796;2024-03-02T04:20:35;81.20;;;41.80;;
62798;SDS011;48842;51.046;13.796;2024-03-02T04:23:00;84.13;;;43.33;;
62798;SDS011;48842;51.046;13.796;2024-03-02T04:25:25;90.20;;;43.47;;
62798;SDS011;48842;51.046;13.796;2024-03-02T04:27:50;87.97;;;42.43;;
62798;SDS011;48842;51.046;13.796;2024-03-02T04:30:16;72.10;;;38.83;;
62798;SDS011;48842;51.046;13.796;2024-03-02T04:32:41;85.17;;;40.63;;
62798;SDS011;48842;51.046;13.796;2024-03-02T04:35:11;76.03;;;41.30;;
62798;SDS011;48842;51.046;13.796;2024-03-02T04:37:36;83.80;;;40.53;;
62798;SDS011;48842;51.046;13.796;2024-03-02T04:40:02;85.37;;;43.13;;
62798;SDS011;48842;51.046;13.796;2024-03-02T04:42:28;74.83;;;40.50;;
62798;SDS011;48842;51.046;13.796;2024-03-02T04:44:53;86.47;;;44.30;;
62798;SDS011;48842;51.046;13.796;2024-03-02T04:47:18;74.20;;;38.27;;
62798;SDS011;48842;51.046;13.796;2024-03-02T04:49:43;82.43;;;41.00;;
62798;SDS011;48842;51.046;13.796;2024-03-02T04:52:09;74.63;;;40.63;;
62798;SDS011;48842;51.046;13.796;2024-03-02T04:54:34;67.50;;;38.77;;
62798;SDS011;48842;51.046;13.796;2024-03-02T04:57:20;81.93;;;41.10;;
62798;SDS011;48842;51.046;13.796;2024-03-02T04:59:45;76.80;;;41.30;;
62798;SDS011;48842;51.046;13.796;2024-03-02T05:02:10;79.97;;;40.67;;
62798;SDS011;48842;51.046;13.796;2024-03-02T05:04:35;76.33;;;39.43;;
62798;SDS011;48842;51.046;13.796;2024-03-02T05:07:01;75.87;;;39.13;;
62798;SDS011;48842;51.046;13.796;2024-03-02T05:09:26;72.10;;;39.07;;
62798;SDS011;48842;51.046;13.796;2024-03-02T05:11:51;70.33;;;39.77;;
62798;SDS011;48842;51.046;13.796;2024-03-02T05:14:35;74.23;;;38.80;;
62798;SDS011;48842;51.046;13.796;2024-03-02T05:17:01;78.53;;;38.93;;
62798;SDS011;48842;51.046;13.796;2024-03-02T05:19:26;67.03;;;37.70;;
62798;SDS011;48842;51.046;13.796;2024-03-02T05:21:51;71.97;;;38.97;;
62798;SDS011;48842;51.046;13.796;2024-03-02T05:24:16;76.37;;;39.20;;
62798;SDS011;48842;51.046;13.796;2024-03-02T05:26:42;58.73;;;34.17;;
62798;SDS011;48842;51.046;13.796;2024-03-02T05:29:07;71.63;;;38.67;;
62798;SDS011;48842;51.046;13.796;2024-03-02T05:31:32;68.50;;;36.07;;
62798;SDS011;48842;51.046;13.796;2024-03-02T05:33:57;67.30;;;37.30;;
62798;SDS011;48842;51.046;13.796;2024-03-02T05:36:23;63.73;;;36.07;;
62798;SDS011;48842;51.046;13.796;2024-03-02T05:38:48;62.53;;;35.50;;
62798;SDS011;48842;51.046;13.796;2024-03-02T05:41:13;62.10;;;34.83;;
62798;SDS011;48842;51.046;13.796;2024-03-02T05:43:39;65.07;;;35.13;;
62798;SDS011;48842;51.046;13.796;2024-03-02T05:46:04;55.57;;;33.73;;
62798;SDS011;48842;51.046;13.796;2024-03-02T05:48:29;56.30;;;33.50;;
62798;SDS011;48842;51.046;13.796;2024-03-02T05:50:54;55.90;;;32.33;;
62798;SDS011;48842;51.046;13.796;2024-03-02T05:53:20;59.57;;;34.90;;
62798;SDS011;48842;51.046;13.796;2024-03-02T05:55:45;56.57;;;32.97;;
62798;SDS011;48842;51.046;13.796;2024-03-02T05:58:10;61.60;;;35.53;;
62798;SDS011;48842;51.046;13.796;2024-03-02T06:00:57;57.10;;;33.50;;
62798;SDS011;48842;51.046;13.796;2024-03-02T06:03:22;61.77;;;33.60;;
62798;SDS011;48842;51.046;13.796;2024-03-02T06:05:48;61.33;;;35.70;;
62798;SDS011;48842;51.046;13.796;2024-03-02T06:08:14;63.60;;;36.63;;
62798;SDS011;48842;51.046;13.796;2024-03-02T06:10:39;64.80;;;35.70;;
62798;SDS011;48842;51.046;13.796;2024-03-02T06:13:05;67.90;;;39.80;;
62798;SDS011;48842;51.046;13.796;2024-03-02T06:15:30;64.00;;;36.20;;
62798;SDS011;48842;51.046;13.796;2024-03-02T06:17:55;64.60;;;36.20;;
62798;SDS011;48842;51.046;13.796;2024-03-02T06:20:21;62.13;;;36.53;;
62798;SDS011;48842;51.046;13.796;2024-03-02T06:22:46;69.57;;;35.30;;
62798;SDS011;48842;51.046;13.796;2024-03-02T06:25:11;63.57;;;35.37;;
62798;SDS011;48842;51.046;13.796;2024-03-02T06:27:38;66.70;;;34.97;;
62798;SDS011;48842;51.046;13.796;2024-03-02T06:30:03;58.63;;;34.70;;
62798;SDS011;48842;51.046;13.796;2024-03-02T06:32:29;56.57;;;34.47;;
62798;SDS011;48842;51.046;13.796;2024-03-02T06:34:54;64.40;;;35.30;;
62798;SDS011;48842;51.046;13.796;2024-03-02T06:37:20;63.90;;;35.50;;
62798;SDS011;48842;51.046;13.796;2024-03-02T06:39:45;61.70;;;34.80;;
62798;SDS011;48842;51.046;13.796;2024-03-02T06:42:10;70.43;;;35.47;;
62798;SDS011;48842;51.046;13.796;2024-03-02T06:44:35;67.20;;;36.90;;
62798;SDS011;48842;51.046;13.796;2024-03-02T06:47:01;63.03;;;35.90;;
62798;SDS011;48842;51.046;13.796;2024-03-02T06:49:26;66.73;;;36.00;;
62798;SDS011;48842;51.046;13.796;2024-03-02T06:51:51;62.53;;;33.50;;
62798;SDS011;48842;51.046;13.796;2024-03-02T06:54:16;60.87;;;33.70;;
62798;SDS011;48842;51.046;13.796;2024-03-02T06:56:42;63.77;;;36.63;;
62798;SDS011;48842;51.046;13.796;2024-03-02T06:59:07;69.23;;;37.10;;
62798;SDS011;48842;51.046;13.796;2024-03-02T07:01:32;61.50;;;34.23;;
62798;SDS011;48842;51.046;13.796;2024-03-02T07:03:57;66.27;;;34.73;;
62798;SDS011;48842;51.046;13.796;2024-03-02T07:06:23;71.13;;;34.87;;
62798;SDS011;48842;51.046;13.796;2024-03-02T07:08:48;56.77;;;32.63;;
62798;SDS011;48842;51.046;13.796;2024-03-02T07:11:13;60.77;;;34.10;;
62798;SDS011;48842;51.046;13.796;2024-03-02T07:13:38;65.70;;;35.13;;
62798;SDS011;48842;51.046;13.796;2024-03-02T07:16:04;61.97;;;33.63;;
62798;SDS011;48842;51.046;13.796;2024-03-02T07:18:29;64.63;;;34.17;;
62798;SDS011;48842;51.046;13.796;2024-03-02T07:20:58;62.67;;;33.80;;
62798;SDS011;48842;51.046;13.796;2024-03-02T07:23:25;68.53;;;35.40;;
62798;SDS011;48842;51.046;13.796;2024-03-02T07:25:52;70.10;;;35.67;;
62798;SDS011;48842;51.046;13.796;2024-03-02T07:28:20;71.00;;;37.17;;
62798;SDS011;48842;51.046;13.796;2024-03-02T07:30:45;65.10;;;34.40;;
62798;SDS011;48842;51.046;13.796;2024-03-02T07:33:11;71.93;;;36.33;;
62798;SDS011;48842;51.046;13.796;2024-03-02T07:35:36;65.03;;;35.37;;
62798;SDS011;48842;51.046;13.796;2024-03-02T07:38:01;67.13;;;34.40;;
62798;SDS011;48842;51.046;13.796;2024-03-02T07:40:26;68.87;;;36.93;;
62798;SDS011;48842;51.046;13.796;2024-03-02T07:42:53;74.20;;;38.80;;
62798;SDS011;48842;51.046;13.796;2024-03-02T07:45:19;63.60;;;34.03;;
62798;SDS011;48842;51.046;13.796;2024-03-02T07:47:45;78.53;;;39.47;;
62798;SDS011;48842;51.046;13.796;2024-03-02T07:50:14;74.93;;;37.73;;
62798;SDS011;48842;51.046;13.796;2024-03-02T07:52:39;74.47;;;38.80;;
62798;SDS011;48842;51.046;13.796;2024-03-02T07:55:05;70.73;;;37.33;;
62798;SDS011;48842;51.046;13.796;2024-03-02T07:57:30;73.10;;;36.80;;
62798;SDS011;48842;51.046;13.796;2024-03-02T07:59:56;73.30;;;36.70;;
62798;SDS011;48842;51.046;13.796;2024-03-02T08:02:21;68.40;;;35.07;;
62798;SDS011;48842;51.046;13.796;2024-03-02T08:04:47;71.63;;;37.87;;
62798;SDS011;48842;51.046;13.796;2024-03-02T08:07:12;71.17;;;37.03;;
62798;SDS011;48842;51.046;13.796;2024-03-02T08:09:37;68.17;;;34.80;;
62798;SDS011;48842;51.046;13.796;2024-03-02T08:12:04;67.63;;;35.83;;
62798;SDS011;48842;51.046;13.796;2024-03-02T08:14:29;56.63;;;32.83;;
62798;SDS011;48842;51.046;13.796;2024-03-02T08:16:54;66.37;;;33.43;;
62798;SDS011;48842;51.046;13.796;2024-03-02T08:19:20;62.37;;;29.70;;
62798;SDS011;48842;51.046;13.796;2024-03-02T08:21:45;54.97;;;28.80;;
62798;SDS011;48842;51.046;13.796;2024-03-02T08:24:10;57.57;;;30.03;;
62798;SDS011;48842;51.046;13.796;2024-03-02T08:26:36;62.50;;;30.70;;
62798;SDS011;48842;51.046;13.796;2024-03-02T08:29:01;49.83;;;26.10;;
62798;SDS011;48842;51.046;13.796;2024-03-02T08:31:28;47.50;;;24.80;;
62798;SDS011;48842;51.046;13.796;2024-03-02T08:33:53;44.90;;;25.40;;
62798;SDS011;48842;51.046;13.796;2024-03-02T08:36:19;39.23;;;22.17;;
62798;SDS011;48842;51.046;13.796;2024-03-02T08:38:44;44.13;;;23.20;;
62798;SDS011;48842;51.046;13.796;2024-03-02T08:41:10;41.10;;;22.60;;
62798;SDS011;48842;51.046;13.796;2024-03-02T08:43:38;45.40;;;23.73;;
62798;SDS011;48842;51.046;13.796;2024-03-02T08:46:03;45.47;;;23.30;;
62798;SDS011;48842;51.046;13.796;2024-03-02T08:48:29;41.93;;;24.10;;
62798;SDS011;48842;51.046;13.796;2024-03-02T08:50:54;42.30;;;23.80;;
62798;SDS011;48842;51.046;13.796;2024-03-02T08:53:19;44.97;;;24.60;;
62798;SDS011;48842;51.046;13.796;2024-03-02T08:55:45;44.33;;;23.57;;
62798;SDS011;48842;51.046;13.796;2024-03-02T08:58:11;45.50;;;22.60;;
62798;SDS011;48842;51.046;13.796;2024-03-02T09:00:36;44.07;;;23.80;;
62798;SDS011;48842;51.046;13.796;2024-03-02T09:03:01;43.27;;;23.03;;
62798;SDS011;48842;51.046;13.796;2024-03-02T09:05:27;43.77;;;24.67;;
62798;SDS011;48842;51.046;13.796;2024-03-02T09:07:52;44.27;;;25.40;;
62798;SDS011;48842;51.046;13.796;2024-03-02T09:10:17;43.33;;;23.70;;
62798;SDS011;48842;51.046;13.796;2024-03-02T09:12:42;42.00;;;24.07;;
62798;SDS011;48842;51.046;13.796;2024-03-02T09:15:08;43.57;;;24.87;;
62798;SDS011;48842;51.046;13.796;2024-03-02T09:17:33;41.43;;;23.97;;
62798;SDS011;48842;51.046;13.796;2024-03-02T09:19:58;49.63;;;26.73;;
62798;SDS011;48842;51.046;13.796;2024-03-02T09:22:24;43.80;;;24.63;;
62798;SDS011;48842;51.046;13.796;2024-03-02T09:24:49;45.70;;;26.37;;
62798;SDS011;48842;51.046;13.796;2024-03-02T09:27:14;44.20;;;24.50;;
62798;SDS011;48842;51.046;13.796;2024-03-02T09:29:40;46.60;;;26.30;;
62798;SDS011;48842;51.046;13.796;2024-03-02T09:32:05;43.90;;;24.20;;
62798;SDS011;48842;51.046;13.796;2024-03-02T09:34:31;51.20;;;24.30;;
62798;SDS011;48842;51.046;13.796;2024-03-02T09:36:56;46.33;;;25.40;;
62798;SDS011;48842;51.046;13.796;2024-03-02T09:39:22;43.70;;;25.63;;
62798;SDS011;48842;51.046;13.796;2024-03-02T09:41:47;52.57;;;27.43;;
62798;SDS011;48842;51.046;13.796;2024-03-02T09:44:13;48.20;;;25.50;;
62798;SDS011;48842;51.046;13.796;2024-03-02T09:46:39;46.13;;;26.60;;
62798;SDS011;48842;51.046;13.796;2024-03-02T09:49:04;53.80;;;27.17;;
62798;SDS011;48842;51.046;13.796;2024-03-02T09:51:30;51.13;;;27.87;;
62798;SDS011;48842;51.046;13.796;2024-03-02T09:53:56;49.73;;;26.43;;
62798;SDS011;48842;51.046;13.796;2024-03-02T09:56:22;49.73;;;26.53;;
62798;SDS011;48842;51.046;13.796;2024-03-02T09:58:47;52.67;;;27.70;;
62798;SDS011;48842;51.046;13.796;2024-03-02T10:01:12;48.37;;;27.27;;
62798;SDS011;48842;51.046;13.796;2024-03-02T10:03:38;51.37;;;27.93;;
62798;SDS011;48842;51.046;13.796;2024-03-02T10:08:48;57.53;;;28.93;;
62798;SDS011;48842;51.046;13.796;2024-03-02T10:11:32;53.80;;;28.70;;
62798;SDS011;48842;51.046;13.796;2024-03-02T10:14:09;60.47;;;31.87;;
62798;SDS011;48842;51.046;13.796;2024-03-02T10:16:37;47.13;;;24.63;;
62798;SDS011;48842;51.046;13.796;2024-03-02T10:19:22;54.83;;;30.10;;
62798;SDS011;48842;51.046;13.796;2024-03-02T10:21:49;61.77;;;29.17;;
62798;SDS011;48842;51.046;13.796;2024-03-02T10:24:16;54.67;;;28.57;;
62798;SDS011;48842;51.046;13.796;2024-03-02T10:26:42;59.60;;;29.83;;
62798;SDS011;48842;51.046;13.796;2024-03-02T10:29:08;56.90;;;29.67;;
62798;SDS011;48842;51.046;13.796;2024-03-02T10:31:35;54.53;;;28.60;;
62798;SDS011;48842;51.046;13.796;2024-03-02T10:34:02;53.97;;;29.07;;
62798;SDS011;48842;51.046;13.796;2024-03-02T10:36:28;48.80;;;27.20;;
62798;SDS011;48842;51.046;13.796;2024-03-02T10:38:53;52.30;;;27.70;;
62798;SDS011;48842;51.046;13.796;2024-03-02T10:41:23;48.87;;;27.00;;
62798;SDS011;48842;51.046;13.796;2024-03-02T10:43:49;54.10;;;27.10;;
62798;SDS011;48842;51.046;13.796;2024-03-02T10:46:18;49.37;;;26.23;;
62798;SDS011;48842;51.046;13.796;2024-03-02T10:48:44;50.60;;;27.03;;
62798;SDS011;48842;51.046;13.796;2024-03-02T10:51:11;48.17;;;25.93;;
62798;SDS011;48842;51.046;13.796;2024-03-02T10:53:37;40.73;;;23.80;;
62798;SDS011;48842;51.046;13.796;2024-03-02T10:56:02;48.30;;;24.10;;
62798;SDS011;48842;51.046;13.796;2024-03-02T10:58:32;33.87;;;20.13;;
62798;SDS011;48842;51.046;13.796;2024-03-02T11:01:02;37.20;;;22.63;;
62798;SDS011;48842;51.046;13.796;2024-03-02T11:03:29;41.20;;;21.23;;
62798;SDS011;48842;51.046;13.796;2024-03-02T11:05:58;31.50;;;17.87;;
62798;SDS011;48842;51.046;13.796;2024-03-02T11:08:25;37.43;;;20.67;;
62798;SDS011;48842;51.046;13.796;2024-03-02T11:10:58;31.67;;;19.17;;
62798;SDS011;48842;51.046;13.796;2024-03-02T11:13:32;31.57;;;19.03;;
62798;SDS011;48842;51.046;13.796;2024-03-02T11:16:32;27.50;;;17.13;;
62798;SDS011;48842;51.046;13.796;2024-03-02T11:18:49;31.17;;;17.20;;
62798;SDS011;48842;51.046;13.796;2024-03-02T11:21:15;28.27;;;18.23;;
62798;SDS011;48842;51.046;13.796;2024-03-02T11:23:41;34.80;;;18.17;;
62798;SDS011;48842;51.046;13.796;2024-03-02T11:26:16;26.33;;;16.77;;
62798;SDS011;48842;51.046;13.796;2024-03-02T11:28:45;21.60;;;13.83;;
62798;SDS011;48842;51.046;13.796;2024-03-02T11:31:11;24.77;;;12.53;;
62798;SDS011;48842;51.046;13.796;2024-03-02T11:33:36;21.37;;;12.90;;
62798;SDS011;48842;51.046;13.796;2024-03-02T11:36:02;20.77;;;12.40;;
62798;SDS011;48842;51.046;13.796;2024-03-02T11:38:28;16.03;;;10.30;;
62798;SDS011;48842;51.046;13.796;2024-03-02T11:40:54;16.20;;;10.83;;
62798;SDS011;48842;51.046;13.796;2024-03-02T11:43:20;18.57;;;11.03;;
62798;SDS011;48842;51.046;13.796;2024-03-02T11:45:46;16.83;;;11.73;;
62798;SDS011;48842;51.046;13.796;2024-03-02T11:48:12;19.63;;;10.87;;
62798;SDS011;48842;51.046;13.796;2024-03-02T11:50:42;19.80;;;11.37;;
62798;SDS011;48842;51.046;13.796;2024-03-02T11:53:12;21.40;;;11.33;;
62798;SDS011;48842;51.046;13.796;2024-03-02T11:55:39;21.77;;;13.80;;
62798;SDS011;48842;51.046;13.796;2024-03-02T11:58:14;27.97;;;16.43;;
62798;SDS011;48842;51.046;13.796;2024-03-02T12:00:45;25.17;;;13.80;;
62798;SDS011;48842;51.046;13.796;2024-03-02T12:03:12;27.63;;;14.10;;
62798;SDS011;48842;51.046;13.796;2024-03-02T12:05:38;27.70;;;14.83;;
62798;SDS011;48842;51.046;13.796;2024-03-02T12:08:04;19.40;;;12.93;;
62798;SDS011;48842;51.046;13.796;2024-03-02T12:10:31;24.20;;;14.50;;
62798;SDS011;48842;51.046;13.796;2024-03-02T12:12:58;29.30;;;15.83;;
62798;SDS011;48842;51.046;13.796;2024-03-02T12:15:25;25.47;;;14.90;;
62798;SDS011;48842;51.046;13.796;2024-03-02T12:17:55;29.13;;;15.00;;
62798;SDS011;48842;51.046;13.796;2024-03-02T12:20:22;25.53;;;15.40;;
62798;SDS011;48842;51.046;13.796;2024-03-02T12:22:52;29.30;;;14.33;;
62798;SDS011;48842;51.046;13.796;2024-03-02T12:25:17;26.77;;;14.67;;
62798;SDS011;48842;51.046;13.796;2024-03-02T12:27:44;27.30;;;16.70;;
62798;SDS011;48842;51.046;13.796;2024-03-02T12:30:10;32.87;;;17.67;;
62798;SDS011;48842;51.046;13.796;2024-03-02T12:32:37;25.97;;;15.67;;
62798;SDS011;48842;51.046;13.796;2024-03-02T12:35:04;27.50;;;16.00;;
62798;SDS011;48842;51.046;13.796;2024-03-02T12:37:30;28.03;;;15.73;;
62798;SDS011;48842;51.046;13.796;2024-03-02T12:39:55;24.27;;;14.67;;
62798;SDS011;48842;51.046;13.796;2024-03-02T12:42:21;21.63;;;15.03;;
62798;SDS011;48842;51.046;13.796;2024-03-02T12:44:46;27.13;;;15.27;;
62798;SDS011;48842;51.046;13.796;2024-03-02T12:47:12;26.20;;;14.70;;
62798;SDS011;48842;51.046;13.796;2024-03-02T12:49:39;24.07;;;14.00;;
62798;SDS011;48842;51.046;13.796;2024-03-02T12:52:05;23.57;;;13.07;;
62798;SDS011;48842;51.046;13.796;2024-03-02T12:54:30;22.43;;;13.80;;
62798;SDS011;48842;51.046;13.796;2024-03-02T12:56:56;21.00;;;14.50;;
62798;SDS011;48842;51.046;13.796;2024-03-02T12:59:23;22.33;;;14.00;;
62798;SDS011;48842;51.046;13.796;2024-03-02T13:01:54;25.93;;;14.20;;
62798;SDS011;48842;51.046;13.796;2024-03-02T13:04:26;22.67;;;14.57;;
62798;SDS011;48842;51.046;13.796;2024-03-02T13:06:55;24.30;;;15.40;;
62798;SDS011;48842;51.046;13.796;2024-03-02T13:09:22;27.10;;;15.57;;
62798;SDS011;48842;51.046;13.796;2024-03-02T13:11:48;29.53;;;15.53;;
62798;SDS011;48842;51.046;13.796;2024-03-02T13:14:14;27.30;;;16.50;;
62798;SDS011;48842;51.046;13.796;2024-03-02T13:16:41;24.23;;;14.70;;
62798;SDS011;48842;51.046;13.796;2024-03-02T13:19:07;20.20;;;13.43;;
62798;SDS011;48842;51.046;13.796;2024-03-02T13:21:33;33.40;;;15.80;;
62798;SDS011;48842;51.046;13.796;2024-03-02T13:23:58;19.60;;;14.23;;
62798;SDS011;48842;51.046;13.796;2024-03-02T13:26:25;23.67;;;15.47;;
62798;SDS011;48842;51.046;13.796;2024-03-02T13:28:50;25.67;;;15.10;;
62798;SDS011;48842;51.046;13.796;2024-03-02T13:31:16;20.30;;;14.30;;
62798;SDS011;48842;51.046;13.796;2024-03-02T13:33:41;25.43;;;14.50;;
62798;SDS011;48842;51.046;13.796;2024-03-02T13:36:07;25.13;;;15.53;;
62798;SDS011;48842;51.046;13.796;2024-03-02T13:38:32;32.30;;;15.30;;
62798;SDS011;48842;51.046;13.796;2024-03-02T13:40:57;27.30;;;15.70;;
62798;SDS011;48842;51.046;13.796;2024-03-02T13:43:24;20.77;;;14.50;;
62798;SDS011;48842;51.046;13.796;2024-03-02T13:45:50;22.17;;;12.70;;
62798;SDS011;48842;51.046;13.796;2024-03-02T13:48:17;28.60;;;13.40;;
62798;SDS011;48842;51.046;13.796;2024-03-02T13:50:42;21.07;;;13.20;;
62798;SDS011;48842;51.046;13.796;2024-03-02T13:53:07;21.63;;;13.07;;
62798;SDS011;48842;51.046;13.796;2024-03-02T13:55:33;22.53;;;13.80;;
62798;SDS011;48842;51.046;13.796;2024-03-02T13:57:59;21.13;;;13.13;;
62798;SDS011;48842;51.046;13.796;2024-03-02T14:00:24;24.33;;;12.40;;
62798;SDS011;48842;51.046;13.796;2024-03-02T14:02:50;18.87;;;12.07;;
62798;SDS011;48842;51.046;13.796;2024-03-02T14:05:16;17.30;;;12.53;;
62798;SDS011;48842;51.046;13.796;2024-03-02T14:07:41;23.70;;;12.83;;